createdAt,value
2019-02-23T00:00:53.528Z,33.00
2019-02-23T00:03:22.355Z,34.53
2019-02-23T00:05:51.187Z,27.40
2019-02-23T00:08:20.128Z,27.40
2019-02-23T00:10:48.954Z,25.23
2019-02-23T00:13:17.884Z,29.13
2019-02-23T00:15:47.118Z,30.60
2019-02-23T00:18:16.106Z,32.87
2019-02-23T00:20:45.112Z,28.53
2019-02-23T00:23:14.110Z,31.37
2019-02-23T00:25:43.021Z,33.73
2019-02-23T00:28:12.143Z,29.47
2019-02-23T00:30:41.662Z,26.93
2019-02-23T00:33:10.820Z,24.90
2019-02-23T00:35:39.918Z,24.00
2019-02-23T00:38:08.814Z,22.50
2019-02-23T00:40:38.253Z,24.33
2019-02-23T00:43:07.107Z,29.57
2019-02-23T00:45:36.564Z,32.23
2019-02-23T00:48:05.939Z,24.40
2019-02-23T00:50:34.851Z,24.93
2019-02-23T00:53:03.893Z,23.13
2019-02-23T00:55:32.788Z,22.77
2019-02-23T00:58:01.721Z,25.20
2019-02-23T01:00:30.706Z,25.73
2019-02-23T01:02:59.743Z,19.00
2019-02-23T01:05:28.736Z,35.03
2019-02-23T01:08:03.868Z,27.77
2019-02-23T01:10:32.864Z,26.60
2019-02-23T01:13:01.815Z,36.67
2019-02-23T01:15:30.724Z,32.73
2019-02-23T01:17:59.591Z,32.00
2019-02-23T01:20:28.590Z,30.33
2019-02-23T01:22:57.591Z,27.20
2019-02-23T01:25:26.738Z,25.23
2019-02-23T01:27:55.845Z,33.70
2019-02-23T01:30:25.047Z,30.23
2019-02-23T01:32:54.257Z,28.17
2019-02-23T01:35:23.365Z,20.93
2019-02-23T01:37:52.326Z,28.93
2019-02-23T01:40:21.403Z,29.13
2019-02-23T01:42:50.374Z,24.63
2019-02-23T01:45:19.417Z,26.73
2019-02-23T01:47:48.427Z,26.20
2019-02-23T01:50:17.480Z,35.07
2019-02-23T01:52:46.526Z,28.90
2019-02-23T01:55:15.363Z,24.30
2019-02-23T01:57:44.406Z,28.23
2019-02-23T02:00:15.312Z,24.57
2019-02-23T02:02:45.323Z,20.13
2019-02-23T02:05:14.399Z,26.93
2019-02-23T02:07:43.382Z,24.83
2019-02-23T02:10:12.403Z,23.70
2019-02-23T02:12:41.538Z,23.60
2019-02-23T02:15:12.725Z,23.47
2019-02-23T02:17:41.734Z,23.10
2019-02-23T02:20:11.679Z,24.90
2019-02-23T02:22:40.875Z,24.23
2019-02-23T02:25:10.231Z,30.33
2019-02-23T02:27:39.316Z,25.07
2019-02-23T02:30:10.546Z,23.57
2019-02-23T02:32:39.832Z,26.73
2019-02-23T02:35:10.073Z,30.10
2019-02-23T02:37:39.203Z,24.57
2019-02-23T02:40:09.007Z,23.63
2019-02-23T02:42:37.972Z,23.00
2019-02-23T02:45:08.464Z,24.93
2019-02-23T02:47:37.327Z,33.07
2019-02-23T02:50:07.079Z,23.13
2019-02-23T02:52:35.961Z,30.80
2019-02-23T02:55:05.043Z,29.13
2019-02-23T02:57:33.873Z,31.10
2019-02-23T03:00:02.811Z,27.63
2019-02-23T03:02:31.636Z,26.03
2019-02-23T03:05:00.584Z,26.50
2019-02-23T03:07:29.589Z,36.20
2019-02-23T03:09:58.459Z,33.80
2019-02-23T03:12:27.412Z,26.00
2019-02-23T03:14:56.357Z,25.30
2019-02-23T03:17:25.272Z,27.70
2019-02-23T03:19:54.239Z,24.07
2019-02-23T03:22:23.158Z,33.97
2019-02-23T03:24:52.092Z,24.43
2019-02-23T03:27:20.973Z,25.80
2019-02-23T03:29:49.962Z,26.43
2019-02-23T03:32:18.825Z,28.80
2019-02-23T03:34:47.698Z,33.50
2019-02-23T03:37:16.529Z,25.23
2019-02-23T03:39:45.394Z,26.40
2019-02-23T03:42:14.531Z,29.27
2019-02-23T03:44:43.390Z,28.67
2019-02-23T03:47:12.298Z,25.60
2019-02-23T03:49:41.180Z,31.57
2019-02-23T03:52:10.248Z,26.07
2019-02-23T03:54:39.174Z,29.60
2019-02-23T03:57:08.114Z,28.87
2019-02-23T03:59:37.111Z,27.53
2019-02-23T04:02:06.159Z,31.53
2019-02-23T04:04:35.099Z,33.63
2019-02-23T04:07:04.056Z,32.63
2019-02-23T04:09:33.030Z,39.07
2019-02-23T04:12:01.891Z,32.30
2019-02-23T04:14:34.042Z,35.30
2019-02-23T04:17:03.037Z,26.50
2019-02-23T04:19:31.995Z,31.00
2019-02-23T04:22:00.962Z,31.10
2019-02-23T04:24:29.986Z,27.00
2019-02-23T04:26:59.704Z,30.10
2019-02-23T04:29:34.426Z,39.27
2019-02-23T04:32:22.574Z,36.83
2019-02-23T04:34:51.536Z,31.83
2019-02-23T04:37:20.441Z,28.87
2019-02-23T04:39:49.368Z,32.93
2019-02-23T04:42:18.281Z,33.73
2019-02-23T04:44:47.175Z,32.57
2019-02-23T04:47:16.165Z,33.57
2019-02-23T04:49:52.879Z,34.70
2019-02-23T04:52:21.897Z,32.63
2019-02-23T04:54:50.867Z,29.70
2019-02-23T04:57:19.785Z,35.40
2019-02-23T04:59:48.715Z,35.33
2019-02-23T05:02:17.737Z,31.50
2019-02-23T05:04:46.807Z,31.63
2019-02-23T05:07:15.655Z,33.07
2019-02-23T05:09:44.563Z,39.10
2019-02-23T05:12:13.483Z,30.20
2019-02-23T05:14:42.432Z,29.80
2019-02-23T05:17:11.280Z,37.50
2019-02-23T05:19:40.249Z,29.80
2019-02-23T05:22:09.267Z,37.10
2019-02-23T05:24:38.174Z,36.87
2019-02-23T05:27:07.185Z,34.83
2019-02-23T05:29:36.135Z,44.33
2019-02-23T05:32:05.034Z,33.40
2019-02-23T05:34:34.263Z,35.47
2019-02-23T05:37:03.153Z,36.63
2019-02-23T05:39:32.273Z,39.47
2019-02-23T05:42:01.222Z,34.73
2019-02-23T05:44:30.105Z,28.70
2019-02-23T05:46:59.038Z,37.40
2019-02-23T05:49:29.019Z,40.97
2019-02-23T05:51:57.999Z,32.73
2019-02-23T05:54:26.954Z,42.47
2019-02-23T05:56:56.063Z,39.83
2019-02-23T05:59:24.961Z,30.43
2019-02-23T06:01:53.846Z,31.13
2019-02-23T06:04:22.808Z,36.53
2019-02-23T06:06:52.117Z,30.93
2019-02-23T06:09:21.063Z,34.17
2019-02-23T06:11:49.978Z,33.60
2019-02-23T06:16:53.280Z,34.40
2019-02-23T06:19:22.523Z,32.53
2019-02-23T06:21:54.147Z,25.27
2019-02-23T06:24:22.178Z,29.20
2019-02-23T06:26:51.257Z,31.00
2019-02-23T06:29:20.379Z,33.60
2019-02-23T06:31:49.468Z,29.77
2019-02-23T06:36:53.232Z,29.03
2019-02-23T06:39:22.757Z,33.83
2019-02-23T06:41:51.728Z,31.47
2019-02-23T06:44:20.623Z,30.47
2019-02-23T06:46:49.507Z,38.07
2019-02-23T06:49:18.399Z,30.30
2019-02-23T06:51:47.275Z,32.37
2019-02-23T06:54:16.128Z,31.33
2019-02-23T06:56:45.995Z,30.70
2019-02-23T06:59:14.894Z,32.67
2019-02-23T07:01:44.156Z,24.27
2019-02-23T07:04:13.052Z,31.27
2019-02-23T07:06:42.371Z,32.57
2019-02-23T07:09:11.301Z,29.33
2019-02-23T07:11:40.119Z,38.03
2019-02-23T07:14:09.486Z,32.63
2019-02-23T07:16:38.399Z,31.90
2019-02-23T07:19:07.253Z,34.67
2019-02-23T07:24:10.856Z,27.37
2019-02-23T07:26:39.909Z,30.10
2019-02-23T07:29:09.007Z,32.60
2019-02-23T07:31:37.972Z,32.67
2019-02-23T07:34:07.140Z,32.73
2019-02-23T07:36:36.123Z,32.67
2019-02-23T07:39:06.335Z,27.40
2019-02-23T07:41:35.280Z,36.47
2019-02-23T07:44:05.667Z,40.60
2019-02-23T07:46:35.061Z,37.47
2019-02-23T07:49:04.093Z,36.23
2019-02-23T07:51:33.011Z,27.47
2019-02-23T07:54:01.990Z,33.70
2019-02-23T07:56:30.954Z,31.80
2019-02-23T07:59:00.078Z,35.27
2019-02-23T08:01:29.011Z,32.90
2019-02-23T08:03:58.010Z,39.83
2019-02-23T08:06:27.064Z,33.03
2019-02-23T08:08:55.988Z,27.37
2019-02-23T08:11:24.894Z,38.83
2019-02-23T08:16:28.602Z,28.40
2019-02-23T08:18:59.187Z,34.40
2019-02-23T08:21:32.530Z,27.77
2019-02-23T08:24:01.481Z,29.33
2019-02-23T08:26:30.648Z,30.10
2019-02-23T08:28:59.599Z,27.27
2019-02-23T08:31:28.533Z,26.37
2019-02-23T08:33:57.512Z,30.60
2019-02-23T08:36:26.874Z,32.10
2019-02-23T08:38:55.850Z,28.17
2019-02-23T08:41:24.962Z,26.70
2019-02-23T08:43:54.912Z,31.03
2019-02-23T08:46:23.902Z,26.83
2019-02-23T08:48:52.799Z,37.73
2019-02-23T08:53:56.670Z,29.17
2019-02-23T08:56:25.594Z,31.10
2019-02-23T08:58:54.546Z,32.23
2019-02-23T09:01:23.565Z,26.50
2019-02-23T09:03:52.511Z,28.40
2019-02-23T09:06:24.450Z,39.27
2019-02-23T09:08:53.543Z,32.10
2019-02-23T09:11:22.613Z,29.70
2019-02-23T09:13:51.721Z,28.83
2019-02-23T09:16:20.623Z,31.63
2019-02-23T09:18:49.793Z,51.87
2019-02-23T09:21:18.832Z,28.40
2019-02-23T09:23:47.923Z,25.17
2019-02-23T09:26:16.929Z,33.07
2019-02-23T09:28:45.855Z,34.73
2019-02-23T09:31:14.770Z,34.13
2019-02-23T09:33:43.891Z,30.30
2019-02-23T09:36:12.875Z,25.60
2019-02-23T09:38:41.949Z,26.40
2019-02-23T09:41:11.244Z,36.03
2019-02-23T09:43:40.221Z,25.63
2019-02-23T09:46:09.323Z,27.30
2019-02-23T09:48:38.159Z,26.70
2019-02-23T09:51:07.348Z,35.97
2019-02-23T09:56:11.190Z,36.57
2019-02-23T09:58:40.135Z,33.67
2019-02-23T10:01:09.141Z,28.67
2019-02-23T10:03:38.102Z,28.90
2019-02-23T10:06:07.132Z,32.80
2019-02-23T10:08:35.987Z,31.60
2019-02-23T10:11:05.036Z,30.93
2019-02-23T10:13:34.574Z,32.17
2019-02-23T10:16:03.619Z,28.83
2019-02-23T10:18:32.699Z,30.20
2019-02-23T10:21:01.508Z,35.93
2019-02-23T10:23:30.417Z,30.57
2019-02-23T10:25:59.414Z,36.33
2019-02-23T10:28:28.376Z,28.10
2019-02-23T10:30:57.284Z,29.80
2019-02-23T10:33:26.292Z,32.43
2019-02-23T10:35:55.261Z,28.77
2019-02-23T10:38:24.239Z,25.10
2019-02-23T10:40:53.181Z,32.17
2019-02-23T10:43:23.047Z,20.70
2019-02-23T10:45:52.035Z,23.90
2019-02-23T10:48:21.045Z,24.20
2019-02-23T10:50:50.178Z,23.43
2019-02-23T10:53:19.037Z,23.40
2019-02-23T10:55:47.887Z,23.67
2019-02-23T10:58:16.915Z,23.97
2019-02-23T11:00:46.131Z,19.03
2019-02-23T11:03:15.043Z,28.00
2019-02-23T11:05:44.209Z,27.40
2019-02-23T11:08:13.555Z,23.57
2019-02-23T11:10:42.706Z,26.83
2019-02-23T11:13:11.975Z,31.50
2019-02-23T11:15:41.160Z,22.73
2019-02-23T11:18:10.168Z,24.60
2019-02-23T11:20:39.155Z,34.63
2019-02-23T11:23:08.166Z,26.73
2019-02-23T11:25:37.126Z,25.20
2019-02-23T11:28:06.523Z,21.70
2019-02-23T11:30:35.569Z,24.97
2019-02-23T11:33:04.676Z,20.07
2019-02-23T11:35:34.328Z,23.87
2019-02-23T11:38:03.730Z,16.70
2019-02-23T11:40:32.591Z,21.20
2019-02-23T11:43:01.751Z,22.80
2019-02-23T11:45:31.123Z,23.90
2019-02-23T11:48:00.342Z,21.77
2019-02-23T11:50:29.290Z,34.63
2019-02-23T11:52:58.262Z,20.73
2019-02-23T11:55:27.231Z,21.53
2019-02-23T11:57:56.223Z,19.90
2019-02-23T12:02:59.995Z,20.40
2019-02-23T12:05:29.046Z,23.90
2019-02-23T12:07:58.075Z,25.93
2019-02-23T12:10:27.448Z,17.63
2019-02-23T12:12:56.672Z,22.93
2019-02-23T12:15:25.532Z,23.80
2019-02-23T12:17:54.618Z,28.83
2019-02-23T12:20:23.597Z,17.07
2019-02-23T12:22:52.459Z,16.33
2019-02-23T12:25:21.399Z,26.30
2019-02-23T12:27:50.341Z,15.90
2019-02-23T12:30:19.627Z,16.43
2019-02-23T12:32:48.537Z,18.70
2019-02-23T12:35:17.717Z,21.40
2019-02-23T12:37:47.103Z,19.03
2019-02-23T12:40:16.098Z,14.90
2019-02-23T12:42:45.488Z,16.07
2019-02-23T12:45:14.892Z,18.80
2019-02-23T12:47:45.110Z,13.10
2019-02-23T12:50:14.167Z,15.90
2019-02-23T12:52:43.067Z,17.03
2019-02-23T12:55:12.557Z,16.37
2019-02-23T12:57:41.486Z,15.43
2019-02-23T13:00:11.536Z,16.00
2019-02-23T13:02:40.519Z,15.53
2019-02-23T13:05:09.914Z,22.60
2019-02-23T13:07:38.938Z,18.47
2019-02-23T13:10:11.291Z,13.90
2019-02-23T13:13:18.764Z,15.53
2019-02-23T13:16:31.865Z,16.20
2019-02-23T13:19:40.551Z,15.23
2019-02-23T13:22:48.701Z,20.03
2019-02-23T13:26:08.310Z,17.50
2019-02-23T13:28:50.224Z,19.57
2019-02-23T13:31:48.893Z,17.07
2019-02-23T13:34:57.739Z,19.13
2019-02-23T13:37:57.099Z,14.40
2019-02-23T13:41:34.875Z,18.73
2019-02-23T13:45:03.045Z,18.07
2019-02-23T13:48:14.709Z,21.10
2019-02-23T13:51:03.994Z,17.40
2019-02-23T13:54:19.708Z,19.27
2019-02-23T13:57:14.742Z,25.93
2019-02-23T13:59:52.998Z,16.50
2019-02-23T14:02:43.107Z,18.03
2019-02-23T14:05:51.036Z,14.57
2019-02-23T14:08:47.988Z,21.53
2019-02-23T14:11:54.069Z,17.77
2019-02-23T14:14:39.672Z,19.57
2019-02-23T14:17:39.383Z,17.53
2019-02-23T14:20:48.803Z,14.50
2019-02-23T14:23:58.013Z,21.40
2019-02-23T14:26:52.019Z,17.30
2019-02-23T14:29:50.760Z,22.07
2019-02-23T14:32:39.029Z,18.97
2019-02-23T14:35:27.545Z,35.20
2019-02-23T14:38:53.171Z,19.47
2019-02-23T14:41:54.708Z,20.90
2019-02-23T14:44:41.186Z,19.70
2019-02-23T14:47:33.072Z,25.53
2019-02-23T14:50:43.696Z,22.07
2019-02-23T14:53:49.201Z,16.00
2019-02-23T14:56:43.797Z,27.40
2019-02-23T15:03:02.288Z,28.40
2019-02-23T15:05:55.507Z,21.13
2019-02-23T15:08:40.467Z,20.40
2019-02-23T15:11:40.091Z,17.97
2019-02-23T15:14:42.863Z,26.37
2019-02-23T15:17:59.780Z,18.00
2019-02-23T15:20:55.956Z,13.23
2019-02-23T15:23:57.159Z,23.73
2019-02-23T15:26:58.497Z,21.93
2019-02-23T15:29:39.106Z,20.07
2019-02-23T15:33:01.598Z,18.73
2019-02-23T15:36:00.348Z,17.37
2019-02-23T15:39:15.390Z,17.73
2019-02-23T15:42:24.816Z,18.33
2019-02-23T15:45:41.379Z,24.97
2019-02-23T15:48:27.414Z,19.00
2019-02-23T15:50:56.433Z,20.00
2019-02-23T15:53:25.310Z,21.87
2019-02-23T15:55:55.231Z,22.93
2019-02-23T15:58:24.190Z,17.50
2019-02-23T16:00:53.813Z,20.40
2019-02-23T16:03:23.243Z,29.10
2019-02-23T16:05:52.316Z,17.80
2019-02-23T16:08:21.140Z,21.37
2019-02-23T16:10:49.989Z,21.30
2019-02-23T16:13:20.531Z,22.00
2019-02-23T16:15:49.544Z,18.07
2019-02-23T16:18:18.607Z,18.53
2019-02-23T16:20:47.635Z,26.33
2019-02-23T16:23:16.599Z,21.40
2019-02-23T16:25:45.494Z,19.27
2019-02-23T16:28:14.587Z,21.20
2019-02-23T16:30:43.473Z,20.07
2019-02-23T16:33:12.521Z,16.40
2019-02-23T16:35:41.683Z,18.87
2019-02-23T16:38:10.931Z,21.60
2019-02-23T16:40:40.599Z,18.90
2019-02-23T16:43:09.447Z,26.23
2019-02-23T16:45:38.427Z,19.33
2019-02-23T16:48:07.447Z,18.10
2019-02-23T16:50:36.347Z,22.27
2019-02-23T16:53:06.385Z,20.00
2019-02-23T16:55:35.545Z,20.27
2019-02-23T16:58:04.767Z,19.00
2019-02-23T17:00:33.740Z,21.10
2019-02-23T17:03:02.698Z,20.17
2019-02-23T17:05:31.939Z,16.93
2019-02-23T17:08:00.910Z,24.77
2019-02-23T17:10:30.046Z,19.73
2019-02-23T17:12:59.167Z,21.40
2019-02-23T17:15:47.542Z,16.60
2019-02-23T17:18:16.521Z,19.60
2019-02-23T17:20:45.550Z,23.23
2019-02-23T17:23:14.371Z,24.37
2019-02-23T17:25:44.204Z,17.83
2019-02-23T17:28:13.351Z,15.50
2019-02-23T17:30:42.474Z,22.10
2019-02-23T17:33:11.444Z,29.80
2019-02-23T17:35:40.551Z,19.13
2019-02-23T17:38:16.107Z,17.37
2019-02-23T17:40:40.475Z,19.73
2019-02-23T17:43:09.566Z,22.87
2019-02-23T17:45:38.463Z,15.77
2019-02-23T17:48:07.665Z,24.53
2019-02-23T17:50:36.617Z,17.20
2019-02-23T17:53:06.147Z,18.67
2019-02-23T17:55:34.984Z,18.03
2019-02-23T17:58:04.467Z,13.60
2019-02-23T18:00:33.291Z,17.70
2019-02-23T18:03:02.432Z,18.20
2019-02-23T18:05:31.389Z,19.07
2019-02-23T18:08:00.429Z,20.30
2019-02-23T18:10:29.528Z,15.40
2019-02-23T18:12:58.340Z,19.43
2019-02-23T18:15:27.262Z,20.17
2019-02-23T18:17:56.704Z,21.13
2019-02-23T18:20:25.855Z,17.80
2019-02-23T18:22:57.486Z,19.50
2019-02-23T18:25:27.007Z,16.43
2019-02-23T18:27:56.020Z,20.87
2019-02-23T18:30:25.219Z,15.97
2019-02-23T18:32:54.485Z,15.67
2019-02-23T18:35:23.608Z,17.17
2019-02-23T18:37:52.765Z,13.00
2019-02-23T18:40:22.014Z,20.70
2019-02-23T18:42:53.925Z,22.37
2019-02-23T18:45:23.417Z,16.47
2019-02-23T18:47:56.302Z,15.60
2019-02-23T18:50:27.308Z,21.67
2019-02-23T18:52:56.452Z,30.13
2019-02-23T18:55:25.945Z,19.50
2019-02-23T18:57:56.181Z,19.73
2019-02-23T19:00:25.304Z,18.13
2019-02-23T19:02:55.799Z,17.60
2019-02-23T19:05:49.681Z,16.93
2019-02-23T19:08:14.820Z,19.00
2019-02-23T19:10:44.271Z,20.40
2019-02-23T19:13:13.103Z,17.67
2019-02-23T19:15:41.978Z,16.67
2019-02-23T19:18:11.199Z,17.87
2019-02-23T19:20:40.384Z,16.60
2019-02-23T19:23:09.338Z,18.60
2019-02-23T19:25:38.544Z,17.40
2019-02-23T19:28:07.399Z,20.27
2019-02-23T19:30:36.587Z,23.83
2019-02-23T19:33:05.619Z,16.73
2019-02-23T19:35:34.864Z,21.80
2019-02-23T19:38:03.983Z,15.53
2019-02-23T19:40:33.475Z,23.00
2019-02-23T19:43:03.030Z,15.50
2019-02-23T19:45:32.050Z,17.00
2019-02-23T19:48:01.167Z,23.33
2019-02-23T19:50:34.016Z,18.10
2019-02-23T19:53:02.830Z,19.73
2019-02-23T19:55:31.892Z,24.33
2019-02-23T19:58:01.524Z,21.90
2019-02-23T20:00:30.778Z,18.93
2019-02-23T20:03:00.002Z,23.47
2019-02-23T20:05:29.286Z,20.13
2019-02-23T20:07:58.148Z,20.67
2019-02-23T20:10:27.281Z,16.80
2019-02-23T20:12:56.579Z,19.97
2019-02-23T20:15:25.476Z,25.60
2019-02-23T20:17:54.562Z,22.20
2019-02-23T20:20:23.699Z,23.50
2019-02-23T20:22:53.066Z,22.60
2019-02-23T20:25:21.981Z,20.33
2019-02-23T20:27:51.037Z,17.47
2019-02-23T20:30:19.891Z,20.03
2019-02-23T20:32:49.302Z,18.80
2019-02-23T20:35:18.337Z,21.40
2019-02-23T20:37:47.294Z,21.73
2019-02-23T20:40:16.655Z,17.90
2019-02-23T20:42:45.636Z,35.17
2019-02-23T20:45:14.660Z,26.80
2019-02-23T20:47:44.778Z,20.97
2019-02-23T20:50:13.722Z,26.53
2019-02-23T20:52:42.618Z,27.63
2019-02-23T20:55:11.820Z,17.83
2019-02-23T20:57:40.726Z,25.57
2019-02-23T21:00:10.005Z,26.10
2019-02-23T21:02:38.899Z,19.80
2019-02-23T21:05:08.627Z,24.37
2019-02-23T21:07:37.686Z,20.20
2019-02-23T21:10:07.063Z,33.13
2019-02-23T21:12:36.087Z,17.37
2019-02-23T21:15:06.605Z,23.67
2019-02-23T21:17:36.718Z,19.30
2019-02-23T21:20:06.195Z,20.13
2019-02-23T21:22:35.380Z,19.90
2019-02-23T21:25:04.673Z,26.60
2019-02-23T21:27:33.586Z,17.70
2019-02-23T21:30:02.579Z,20.47
2019-02-23T21:32:31.526Z,20.70
2019-02-23T21:35:00.466Z,23.73
2019-02-23T21:37:29.420Z,17.97
2019-02-23T21:39:58.419Z,21.60
2019-02-23T21:42:27.257Z,22.70
2019-02-23T21:44:57.874Z,22.60
2019-02-23T21:47:29.538Z,22.93
2019-02-23T21:49:58.355Z,24.45
2019-02-23T21:52:27.343Z,20.30
2019-02-23T21:54:56.337Z,22.63
2019-02-23T21:57:25.171Z,18.53
2019-02-23T21:59:54.124Z,22.33
2019-02-23T22:02:22.973Z,21.13
2019-02-23T22:04:51.818Z,25.70
2019-02-23T22:07:20.809Z,16.23
2019-02-23T22:09:49.754Z,21.17
2019-02-23T22:12:18.656Z,20.80
2019-02-23T22:14:47.773Z,20.27
2019-02-23T22:17:16.946Z,19.37
2019-02-23T22:19:45.744Z,16.97
2019-02-23T22:22:14.692Z,20.80
2019-02-23T22:24:43.529Z,18.20
2019-02-23T22:27:12.496Z,20.40
2019-02-23T22:29:41.357Z,23.77
2019-02-23T22:32:10.423Z,23.67
2019-02-23T22:34:39.341Z,21.17
2019-02-23T22:37:08.635Z,21.80
2019-02-23T22:39:37.565Z,18.57
2019-02-23T22:42:06.713Z,20.77
2019-02-23T22:44:35.643Z,25.97
2019-02-23T22:47:04.626Z,29.40
2019-02-23T22:49:33.444Z,21.47
2019-02-23T22:52:02.493Z,15.10
2019-02-23T22:54:31.434Z,18.00
2019-02-23T22:57:00.544Z,12.10
2019-02-23T22:59:29.727Z,17.93
2019-02-23T23:01:58.665Z,18.87
2019-02-23T23:04:27.535Z,15.13
2019-02-23T23:06:56.963Z,18.37
2019-02-23T23:09:25.808Z,16.50
2019-02-23T23:11:55.079Z,22.13
2019-02-23T23:14:23.960Z,22.87
2019-02-23T23:16:52.774Z,19.13
2019-02-23T23:19:21.786Z,21.03
2019-02-23T23:21:50.613Z,26.87
2019-02-23T23:24:19.910Z,22.63
2019-02-23T23:26:48.938Z,19.20
2019-02-23T23:29:17.923Z,21.70
2019-02-23T23:31:46.849Z,19.50
2019-02-23T23:34:15.680Z,14.23
2019-02-23T23:36:44.738Z,21.73
2019-02-23T23:39:13.582Z,22.00
2019-02-23T23:41:42.435Z,15.40
2019-02-23T23:44:11.515Z,21.37
2019-02-23T23:46:40.460Z,14.23
2019-02-23T23:49:09.300Z,13.97
2019-02-23T23:51:38.287Z,17.43
2019-02-23T23:54:07.268Z,20.63
2019-02-23T23:56:36.248Z,18.57
2019-02-23T23:59:05.159Z,16.63
